Time;durP1;ratioP1;P1;durP2;ratioP2;P2;SDS_P1;SDS_P2;PMS_P1;PMS_P2;Temp;Humidity;BMP_temperature;BMP_pressure;BME280_temperature;BME280_humidity;BME280_pressure;Samples;Min_cycle;Max_cycle;Signal;HPM_P1;HPM_P2
2023/01/13 00:00:13;;;;;;;1.40;1.00;;;9.50;99.90;;;;;;5056103;28;20516;-68
2023/01/13 00:02:40;;;;;;;1.63;0.97;;;9.60;99.90;;;;;;5056171;28;20462;-69
2023/01/13 00:05:08;;;;;;;2.77;1.20;;;9.60;99.90;;;;;;5056132;28;20455;-69
2023/01/13 00:07:38;;;;;;;1.40;1.00;;;9.60;99.90;;;;;;5056121;28;20511;-69
2023/01/13 00:10:07;;;;;;;1.50;1.03;;;9.60;99.90;;;;;;5054969;28;20454;-68
2023/01/13 00:12:34;;;;;;;1.30;0.80;;;9.60;99.90;;;;;;5055399;28;20757;-69
2023/01/13 00:15:00;;;;;;;1.40;1.00;;;9.60;99.90;;;;;;5056584;28;20543;-69
2023/01/13 00:17:27;;;;;;;2.17;1.00;;;9.60;99.90;;;;;;5057135;28;20459;-68
2023/01/13 00:19:55;;;;;;;1.40;0.90;;;9.60;99.90;;;;;;5057205;28;20534;-69
2023/01/13 00:22:22;;;;;;;1.30;0.90;;;9.70;99.90;;;;;;5056155;28;20540;-69
2023/01/13 00:24:50;;;;;;;2.83;1.00;;;9.70;99.90;;;;;;5056208;28;20972;-68
2023/01/13 00:27:17;;;;;;;1.30;0.80;;;9.70;99.90;;;;;;5055805;28;20784;-67
2023/01/13 00:29:44;;;;;;;1.30;0.90;;;9.70;99.90;;;;;;5055664;28;20542;-68
2023/01/13 00:32:11;;;;;;;1.50;1.10;;;9.80;99.90;;;;;;5055083;28;20461;-68
2023/01/13 00:34:38;;;;;;;1.20;0.80;;;9.80;99.90;;;;;;5055728;28;20542;-69
2023/01/13 00:37:04;;;;;;;2.43;1.00;;;9.80;99.90;;;;;;5055445;28;20795;-69
2023/01/13 00:39:31;;;;;;;1.30;0.90;;;9.80;99.90;;;;;;5054518;28;20451;-68
2023/01/13 00:44:46;;;;;;;1.43;1.00;;;9.80;99.90;;;;;;5054622;28;20569;-68
2023/01/13 00:47:13;;;;;;;1.33;0.90;;;9.90;99.90;;;;;;5054543;28;20479;-70
2023/01/13 00:49:40;;;;;;;1.40;0.80;;;9.80;99.90;;;;;;5055064;28;20454;-70
2023/01/13 00:52:07;;;;;;;2.07;1.00;;;9.90;99.90;;;;;;5054435;28;20462;-69
2023/01/13 00:54:34;;;;;;;2.40;1.10;;;9.90;99.90;;;;;;5053812;28;20466;-67
2023/01/13 00:57:02;;;;;;;1.20;0.80;;;9.80;99.90;;;;;;5053766;28;21002;-70
2023/01/13 00:59:29;;;;;;;1.20;0.70;;;9.90;99.90;;;;;;5053797;28;20490;-69
2023/01/13 01:01:56;;;;;;;1.50;0.80;;;9.90;99.90;;;;;;5054038;28;20850;-69
2023/01/13 01:04:23;;;;;;;1.33;0.87;;;9.90;99.90;;;;;;5054166;28;20538;-70
2023/01/13 01:06:50;;;;;;;1.60;0.83;;;9.90;99.90;;;;;;5053851;28;20504;-68
2023/01/13 01:09:17;;;;;;;1.40;0.83;;;9.90;99.90;;;;;;5053663;28;20465;-70
2023/01/13 01:11:44;;;;;;;1.17;0.80;;;9.90;99.90;;;;;;5053875;28;20550;-69
2023/01/13 01:14:13;;;;;;;1.60;0.80;;;9.90;99.90;;;;;;5053994;28;20451;-69
2023/01/13 01:16:41;;;;;;;1.17;0.70;;;9.90;99.90;;;;;;5053541;28;20796;-69
2023/01/13 01:19:10;;;;;;;1.40;0.70;;;9.90;99.90;;;;;;5053281;28;20466;-69
2023/01/13 01:21:36;;;;;;;2.87;0.80;;;10.00;99.90;;;;;;5053330;28;20554;-69
2023/01/13 01:24:04;;;;;;;139.40;86.73;;;10.00;99.90;;;;;;5052941;28;20574;-69
2023/01/13 01:26:32;;;;;;;4.67;2.70;;;10.00;99.90;;;;;;5053089;28;20499;-69
2023/01/13 01:29:01;;;;;;;1.53;1.07;;;10.00;99.90;;;;;;5053532;28;20469;-67
2023/01/13 01:31:31;;;;;;;1.50;0.90;;;10.00;99.90;;;;;;5053587;28;20528;-69
2023/01/13 01:33:58;;;;;;;1.63;0.87;;;10.00;99.90;;;;;;5053563;28;20440;-70
2023/01/13 01:36:29;;;;;;;1.23;0.77;;;10.00;99.90;;;;;;5053223;28;20465;-67
2023/01/13 01:38:57;;;;;;;2.17;0.90;;;10.00;99.90;;;;;;5053085;28;20454;-68
2023/01/13 01:41:26;;;;;;;1.20;0.80;;;10.00;99.90;;;;;;5059941;28;20455;-67
2023/01/13 01:44:01;;;;;;;1.80;0.70;;;10.10;99.90;;;;;;5066497;28;20549;-66
2023/01/13 01:46:32;;;;;;;1.40;0.70;;;10.10;99.90;;;;;;5065974;28;20454;-66
2023/01/13 01:49:05;;;;;;;2.20;0.90;;;10.10;99.90;;;;;;5066145;28;20450;-66
2023/01/13 01:51:36;;;;;;;1.57;0.90;;;10.10;99.90;;;;;;5064153;28;20499;-67
2023/01/13 01:54:06;;;;;;;1.30;0.90;;;10.10;99.90;;;;;;5065401;28;20463;-65
2023/01/13 01:56:34;;;;;;;1.10;0.73;;;10.10;99.90;;;;;;5064431;28;20451;-67
2023/01/13 01:59:01;;;;;;;1.20;0.80;;;10.10;99.90;;;;;;5061951;28;20554;-66
2023/01/13 02:01:30;;;;;;;1.53;0.80;;;10.10;99.90;;;;;;5063704;28;20451;-66
2023/01/13 02:04:03;;;;;;;1.70;0.77;;;10.10;99.90;;;;;;5063192;28;20534;-67
2023/01/13 02:06:30;;;;;;;1.10;0.70;;;10.20;99.90;;;;;;5063178;28;20461;-66
2023/01/13 02:08:59;;;;;;;1.80;0.87;;;10.10;99.90;;;;;;5065753;28;20859;-66
2023/01/13 02:14:08;;;;;;;1.67;1.20;;;10.10;99.90;;;;;;5052585;28;20541;-71
2023/01/13 02:16:42;;;;;;;7.43;3.43;;;10.20;99.90;;;;;;5052703;28;20459;-68
2023/01/13 02:19:25;;;;;;;1.20;0.70;;;10.20;99.90;;;;;;5057001;28;20439;-69
2023/01/13 02:22:20;;;;;;;1.30;0.70;;;10.20;99.90;;;;;;5058136;28;20441;-70
2023/01/13 02:25:19;;;;;;;1.20;0.77;;;10.20;99.90;;;;;;5054642;28;20466;-69
2023/01/13 02:28:11;;;;;;;3.03;0.87;;;10.20;99.90;;;;;;5057955;28;20524;-70
2023/01/13 02:33:44;;;;;;;1.77;0.70;;;10.20;99.90;;;;;;5060757;28;20431;-70
2023/01/13 02:36:17;;;;;;;1.10;0.70;;;10.20;99.90;;;;;;5060818;28;20510;-69
2023/01/13 02:38:50;;;;;;;1.10;0.60;;;10.20;99.90;;;;;;5061407;28;20440;-69
2023/01/13 02:44:11;;;;;;;1.67;0.67;;;10.20;99.90;;;;;;5060174;28;20434;-69
2023/01/13 02:46:51;;;;;;;2.47;0.70;;;10.20;99.90;;;;;;5061144;28;20465;-68
2023/01/13 02:49:25;;;;;;;1.30;0.80;;;10.20;99.90;;;;;;5056948;28;20879;-68
2023/01/13 02:51:56;;;;;;;2.07;1.03;;;10.20;99.90;;;;;;5057125;28;20439;-68
2023/01/13 02:54:26;;;;;;;1.50;0.60;;;10.20;99.90;;;;;;5056702;28;20444;-69
2023/01/13 02:56:56;;;;;;;1.93;0.67;;;10.30;99.90;;;;;;5056823;28;20443;-68
2023/01/13 02:59:26;;;;;;;1.40;0.90;;;10.30;99.90;;;;;;5057309;28;20440;-68
2023/01/13 03:01:56;;;;;;;1.20;0.80;;;10.30;99.90;;;;;;5057306;28;20455;-68
2023/01/13 03:04:59;;;;;;;1.17;0.73;;;10.30;99.90;;;;;;5057164;28;20454;-68
2023/01/13 03:07:52;;;;;;;1.00;0.67;;;10.30;99.90;;;;;;5056565;28;20467;-68
2023/01/13 03:10:36;;;;;;;1.30;0.70;;;10.30;99.90;;;;;;5057347;28;20444;-69
2023/01/13 03:13:13;;;;;;;1.80;0.60;;;10.30;99.90;;;;;;5057562;28;20446;-68
2023/01/13 03:15:48;;;;;;;28.57;15.73;;;10.30;99.90;;;;;;5057105;28;20455;-74
2023/01/13 03:18:30;;;;;;;1.87;1.27;;;10.30;99.90;;;;;;5066576;28;20439;-67
2023/01/13 03:21:04;;;;;;;1.13;0.60;;;10.30;99.90;;;;;;5070921;28;20454;-66
2023/01/13 03:23:35;;;;;;;1.10;0.70;;;10.30;99.90;;;;;;5069748;28;20514;-66
2023/01/13 03:26:10;;;;;;;1.57;0.80;;;10.30;99.90;;;;;;5067132;28;20873;-67
2023/01/13 03:28:42;;;;;;;1.10;0.60;;;10.30;99.90;;;;;;5063944;28;20561;-66
2023/01/13 03:31:15;;;;;;;2.00;0.70;;;10.30;99.90;;;;;;5065298;28;20526;-66
2023/01/13 03:33:48;;;;;;;1.20;0.60;;;10.30;99.90;;;;;;5059082;28;20435;-66
2023/01/13 03:36:17;;;;;;;1.67;0.80;;;10.30;99.90;;;;;;5056036;28;20444;-69
2023/01/13 03:38:47;;;;;;;1.23;0.93;;;10.30;99.90;;;;;;5056087;28;20865;-70
2023/01/13 03:41:21;;;;;;;1.13;0.70;;;10.30;99.90;;;;;;5055946;28;20470;-70
2023/01/13 03:46:44;;;;;;;1.00;0.50;;;10.30;99.90;;;;;;5048879;28;20443;-68
2023/01/13 03:49:16;;;;;;;2.90;0.80;;;10.20;99.90;;;;;;5056691;28;20474;-69
2023/01/13 03:51:48;;;;;;;1.93;0.67;;;10.20;99.90;;;;;;5055892;28;20439;-68
2023/01/13 03:54:19;;;;;;;1.40;0.80;;;10.20;99.90;;;;;;5055795;28;20494;-69
2023/01/13 03:56:48;;;;;;;1.10;0.70;;;10.20;99.90;;;;;;5055816;28;20444;-70
2023/01/13 03:59:20;;;;;;;2.03;0.70;;;10.20;99.90;;;;;;5055234;28;20448;-69
2023/01/13 04:01:54;;;;;;;1.30;0.77;;;10.20;99.90;;;;;;5055446;28;20949;-69
2023/01/13 04:04:30;;;;;;;1.90;0.73;;;10.20;99.90;;;;;;5057231;28;20457;-69
2023/01/13 04:07:06;;;;;;;1.20;0.70;;;10.10;99.90;;;;;;5056291;28;20939;-70
2023/01/13 04:09:41;;;;;;;1.10;0.80;;;10.10;99.90;;;;;;5057276;28;20522;-70
2023/01/13 04:12:13;;;;;;;1.10;0.70;;;10.10;99.90;;;;;;5056905;28;20434;-70
2023/01/13 04:14:41;;;;;;;1.30;0.70;;;10.10;99.90;;;;;;5055407;28;20772;-69
2023/01/13 04:17:08;;;;;;;1.20;0.70;;;10.20;99.90;;;;;;5055368;28;20469;-69
2023/01/13 04:19:36;;;;;;;1.27;0.70;;;10.20;99.90;;;;;;5055112;28;20461;-68
2023/01/13 04:22:03;;;;;;;1.20;0.70;;;10.10;99.90;;;;;;5054796;28;20815;-69
2023/01/13 04:24:30;;;;;;;1.30;0.80;;;10.10;99.90;;;;;;5055171;28;20538;-70
2023/01/13 04:26:57;;;;;;;1.67;0.90;;;10.10;99.90;;;;;;5054977;28;20462;-68
2023/01/13 04:29:23;;;;;;;1.40;0.80;;;10.10;99.90;;;;;;5054993;28;20510;-69
2023/01/13 04:31:50;;;;;;;1.70;0.70;;;10.10;99.90;;;;;;5055022;28;20489;-69
2023/01/13 04:34:17;;;;;;;1.10;0.70;;;10.10;99.90;;;;;;5054594;28;20466;-68
2023/01/13 04:36:45;;;;;;;1.03;0.67;;;10.10;99.90;;;;;;5054502;28;20455;-69
2023/01/13 04:39:12;;;;;;;1.30;0.60;;;10.10;99.90;;;;;;5054995;28;20907;-70
2023/01/13 04:41:57;;;;;;;1.20;0.70;;;10.00;99.90;;;;;;5054441;28;20461;-69
2023/01/13 04:44:24;;;;;;;1.20;0.60;;;10.00;99.90;;;;;;5054962;28;20443;-70
2023/01/13 04:46:51;;;;;;;1.20;0.70;;;10.00;99.90;;;;;;5054726;28;20793;-70
2023/01/13 04:49:18;;;;;;;1.10;0.60;;;10.00;99.90;;;;;;5054815;28;20522;-69
2023/01/13 04:51:46;;;;;;;1.00;0.60;;;10.00;99.90;;;;;;5054739;28;20459;-69
2023/01/13 04:54:13;;;;;;;1.20;0.60;;;10.00;99.90;;;;;;5054391;28;20455;-70
2023/01/13 04:56:40;;;;;;;1.83;0.70;;;10.00;99.90;;;;;;5054464;28;20458;-70
2023/01/13 04:59:07;;;;;;;1.40;0.80;;;10.00;99.90;;;;;;5055182;28;20454;-69
2023/01/13 05:01:34;;;;;;;1.10;0.60;;;10.00;99.90;;;;;;5054776;28;20455;-69
2023/01/13 05:04:01;;;;;;;1.10;0.60;;;10.00;99.90;;;;;;5054753;28;20466;-71
2023/01/13 05:06:28;;;;;;;1.40;0.67;;;10.00;99.90;;;;;;5054471;28;20549;-69
2023/01/13 05:08:56;;;;;;;1.10;0.60;;;10.00;99.90;;;;;;5054571;28;20475;-69
2023/01/13 05:17:02;;;;;;;1.10;0.60;;;10.10;99.90;;;;;;5034531;28;20462;-70
2023/01/13 05:19:30;;;;;;;1.77;0.80;;;10.10;99.90;;;;;;5055688;28;20435;-70
2023/01/13 05:27:27;;;;;;;1.13;0.70;;;10.20;99.90;;;;;;5054839;28;20426;-69
2023/01/13 05:29:54;;;;;;;2.03;0.60;;;10.20;99.90;;;;;;5054617;28;20458;-70
2023/01/13 05:32:22;;;;;;;1.00;0.60;;;10.20;99.90;;;;;;5054074;28;20555;-70
2023/01/13 05:34:49;;;;;;;2.07;0.70;;;10.20;99.90;;;;;;5054426;28;20506;-69
2023/01/13 05:37:16;;;;;;;1.10;0.60;;;10.20;99.90;;;;;;5054211;28;20930;-69
2023/01/13 05:45:21;;;;;;;1.40;0.80;;;10.20;99.90;;;;;;5030118;28;20505;-71
2023/01/13 05:47:48;;;;;;;1.20;0.80;;;10.20;99.90;;;;;;5054366;28;20517;-69
2023/01/13 05:50:16;;;;;;;1.07;0.70;;;10.10;99.90;;;;;;5054745;28;20967;-70
2023/01/13 05:52:43;;;;;;;4.03;0.70;;;10.10;99.90;;;;;;5055044;28;20520;-68
2023/01/13 05:55:12;;;;;;;1.93;0.73;;;10.00;99.90;;;;;;5054268;28;20517;-70
2023/01/13 05:57:38;;;;;;;1.50;0.90;;;10.00;99.90;;;;;;5054411;28;20491;-68
2023/01/13 06:00:06;;;;;;;1.80;0.80;;;9.90;99.90;;;;;;5054495;28;20792;-70
2023/01/13 06:02:33;;;;;;;1.40;0.90;;;9.90;99.90;;;;;;5053919;28;20491;-69
2023/01/13 06:05:00;;;;;;;2.00;1.00;;;9.80;99.90;;;;;;5053735;28;20542;-70
2023/01/13 06:07:27;;;;;;;1.30;0.80;;;9.70;99.90;;;;;;5055765;28;21002;-70
2023/01/13 06:09:54;;;;;;;1.40;0.90;;;9.70;99.90;;;;;;5057922;28;20479;-70
2023/01/13 06:12:22;;;;;;;1.23;0.83;;;9.70;99.90;;;;;;5058740;28;20473;-68
2023/01/13 06:14:49;;;;;;;1.50;1.00;;;9.60;99.90;;;;;;5057669;28;20550;-70
2023/01/13 06:17:16;;;;;;;1.60;0.97;;;9.60;99.90;;;;;;5057988;28;20494;-71
2023/01/13 06:19:43;;;;;;;1.93;1.17;;;9.60;99.90;;;;;;5057736;28;20454;-69
2023/01/13 06:22:15;;;;;;;2.63;1.20;;;9.70;99.90;;;;;;5057539;28;20573;-70
2023/01/13 06:24:44;;;;;;;3.20;1.20;;;9.80;99.90;;;;;;5057457;28;20445;-70
2023/01/13 06:27:12;;;;;;;1.43;1.00;;;9.80;99.90;;;;;;5057876;28;20467;-71
2023/01/13 06:29:40;;;;;;;2.07;1.10;;;9.80;99.90;;;;;;5057115;28;20562;-69
2023/01/13 06:32:12;;;;;;;2.50;1.10;;;9.80;99.90;;;;;;5057793;28;20487;-70
2023/01/13 06:34:40;;;;;;;2.00;1.33;;;9.80;99.90;;;;;;5057311;28;20529;-70
2023/01/13 06:37:07;;;;;;;2.00;1.10;;;9.80;99.90;;;;;;5057393;28;20455;-69
2023/01/13 06:39:34;;;;;;;2.10;1.27;;;9.80;99.90;;;;;;5057078;28;20451;-70
2023/01/13 06:44:49;;;;;;;4.77;1.10;;;9.80;99.90;;;;;;5057486;28;20427;-70
2023/01/13 06:47:16;;;;;;;1.70;1.23;;;9.80;99.90;;;;;;5057594;28;20926;-70
2023/01/13 06:49:43;;;;;;;1.40;1.10;;;9.70;99.90;;;;;;5056792;28;20475;-70
2023/01/13 06:52:10;;;;;;;1.30;1.00;;;9.80;99.90;;;;;;5057414;28;20861;-69
2023/01/13 06:54:36;;;;;;;1.70;1.00;;;9.80;99.90;;;;;;5057072;28;20465;-69
2023/01/13 06:57:03;;;;;;;1.60;1.10;;;9.80;99.90;;;;;;5057943;28;20466;-70
2023/01/13 06:59:33;;;;;;;1.50;1.00;;;9.80;99.90;;;;;;5056713;28;20463;-69
2023/01/13 07:02:01;;;;;;;2.40;1.27;;;9.90;99.90;;;;;;5056673;28;20455;-70
2023/01/13 07:04:28;;;;;;;1.30;0.80;;;9.90;99.90;;;;;;5056598;28;20525;-69
2023/01/13 07:06:55;;;;;;;1.40;0.90;;;9.90;99.90;;;;;;5056744;28;20553;-70
2023/01/13 07:09:22;;;;;;;1.30;0.97;;;9.90;99.90;;;;;;5056899;28;20494;-70
2023/01/13 07:11:50;;;;;;;1.80;0.90;;;9.90;99.90;;;;;;5056495;28;20542;-70
2023/01/13 07:17:03;;;;;;;1.40;0.80;;;9.90;99.90;;;;;;5056650;28;20488;-71
2023/01/13 07:19:30;;;;;;;1.50;1.10;;;10.00;99.90;;;;;;5056418;28;20784;-70
2023/01/13 07:21:57;;;;;;;4.30;0.90;;;10.00;99.90;;;;;;5056457;28;20455;-69
2023/01/13 07:24:23;;;;;;;1.83;0.90;;;10.00;99.90;;;;;;5056586;28;20787;-69
2023/01/13 07:26:51;;;;;;;1.50;1.00;;;10.00;99.90;;;;;;5055871;28;20466;-70
2023/01/13 07:29:18;;;;;;;1.30;0.80;;;10.00;99.90;;;;;;5055837;28;20803;-70
2023/01/13 07:31:45;;;;;;;1.50;0.90;;;10.10;99.90;;;;;;5056429;28;20849;-69
2023/01/13 07:34:13;;;;;;;1.17;0.80;;;10.00;99.90;;;;;;5056827;28;20462;-70
2023/01/13 07:36:40;;;;;;;1.40;0.80;;;10.10;99.90;;;;;;5055951;28;20542;-70
2023/01/13 07:39:07;;;;;;;1.10;0.60;;;10.10;99.90;;;;;;5056141;28;20618;-70
2023/01/13 07:44:18;;;;;;;2.30;0.87;;;10.10;99.90;;;;;;5056086;28;20842;-70
2023/01/13 07:46:44;;;;;;;1.20;0.70;;;10.10;99.90;;;;;;5056301;28;20542;-68
2023/01/13 07:49:13;;;;;;;1.60;1.00;;;10.10;99.90;;;;;;5056578;28;20566;-70
2023/01/13 07:51:40;;;;;;;1.73;0.90;;;10.10;99.90;;;;;;5056736;28;20629;-70
2023/01/13 07:54:07;;;;;;;1.63;0.80;;;10.10;99.90;;;;;;5056750;28;20463;-70
2023/01/13 07:56:34;;;;;;;1.40;0.90;;;10.10;99.90;;;;;;5056031;28;20787;-70
2023/01/13 07:59:01;;;;;;;2.20;0.70;;;10.10;99.90;;;;;;5056621;28;20455;-70
2023/01/13 08:01:30;;;;;;;1.70;1.13;;;10.20;99.90;;;;;;5056855;28;20459;-70
2023/01/13 08:03:57;;;;;;;1.87;0.70;;;10.20;99.90;;;;;;5057277;28;20554;-70
2023/01/13 08:06:26;;;;;;;1.20;0.70;;;10.20;99.90;;;;;;5056031;28;20455;-70
2023/01/13 08:08:53;;;;;;;2.03;0.87;;;10.20;99.90;;;;;;5055218;28;20566;-69
2023/01/13 08:11:20;;;;;;;2.23;0.83;;;10.20;99.90;;;;;;5055503;28;20455;-69
2023/01/13 08:13:47;;;;;;;1.60;0.80;;;10.20;99.90;;;;;;5055534;28;20455;-69
2023/01/13 08:16:15;;;;;;;1.80;0.83;;;10.30;99.90;;;;;;5055215;28;20535;-70
2023/01/13 08:18:43;;;;;;;2.43;0.93;;;10.30;99.90;;;;;;5055155;28;20462;-69
2023/01/13 08:21:11;;;;;;;1.20;0.77;;;10.30;99.90;;;;;;5055935;28;20939;-70
2023/01/13 08:23:40;;;;;;;1.37;0.70;;;10.30;99.90;;;;;;5054771;28;20567;-69
2023/01/13 08:26:10;;;;;;;2.27;0.70;;;10.30;99.90;;;;;;5055515;28;20455;-70
2023/01/13 08:28:39;;;;;;;2.30;0.90;;;10.30;99.90;;;;;;5055304;28;20481;-71
2023/01/13 08:31:08;;;;;;;2.03;0.73;;;10.30;99.90;;;;;;5054265;28;20459;-69
2023/01/13 08:33:35;;;;;;;2.60;1.50;;;10.30;99.90;;;;;;5055087;28;20466;-69
2023/01/13 08:36:04;;;;;;;2.10;0.80;;;10.30;99.90;;;;;;5055566;28;20481;-71
2023/01/13 08:38:30;;;;;;;3.20;0.80;;;10.20;99.90;;;;;;5055893;28;20459;-69
2023/01/13 08:40:59;;;;;;;1.10;0.70;;;10.20;99.90;;;;;;5055214;28;20744;-69
2023/01/13 08:43:26;;;;;;;3.50;1.50;;;10.20;99.90;;;;;;5054727;28;20852;-69
2023/01/13 08:45:57;;;;;;;2.60;0.80;;;10.20;99.90;;;;;;5055205;28;20494;-70
2023/01/13 08:48:25;;;;;;;2.67;0.90;;;10.20;99.90;;;;;;5055501;28;20443;-70
2023/01/13 08:50:52;;;;;;;1.13;0.70;;;10.20;99.90;;;;;;5055321;28;20546;-71
2023/01/13 08:53:19;;;;;;;2.97;0.90;;;10.20;99.90;;;;;;5054816;28;20923;-71
2023/01/13 08:55:46;;;;;;;1.50;0.80;;;10.10;99.90;;;;;;5055037;28;20458;-70
2023/01/13 08:58:14;;;;;;;3.50;1.00;;;10.10;99.90;;;;;;5055201;28;20485;-71
2023/01/13 09:00:41;;;;;;;1.40;0.80;;;10.10;99.90;;;;;;5055166;28;20730;-70
2023/01/13 09:03:08;;;;;;;1.53;0.70;;;10.10;99.90;;;;;;5054660;28;20846;-70
2023/01/13 09:05:35;;;;;;;1.87;1.00;;;10.10;99.90;;;;;;5054700;28;20499;-70
2023/01/13 09:08:02;;;;;;;1.20;0.80;;;10.10;99.90;;;;;;5054415;28;20571;-70
2023/01/13 09:10:29;;;;;;;1.60;0.90;;;10.10;99.90;;;;;;5054454;28;21007;-71
2023/01/13 09:13:14;;;;;;;4.23;1.00;;;10.10;99.90;;;;;;5054679;28;20455;-70
2023/01/13 09:15:46;;;;;;;1.20;0.80;;;10.10;99.90;;;;;;5054606;28;20907;-71
2023/01/13 09:18:13;;;;;;;3.53;1.00;;;10.10;99.90;;;;;;5054390;28;20908;-70
2023/01/13 09:20:40;;;;;;;2.00;1.00;;;10.00;99.90;;;;;;5054435;28;20516;-71
2023/01/13 09:23:07;;;;;;;3.50;1.17;;;10.10;99.90;;;;;;5054044;28;20486;-70
2023/01/13 09:25:36;;;;;;;2.40;0.80;;;10.20;99.90;;;;;;5054544;28;20548;-70
2023/01/13 09:28:04;;;;;;;1.57;0.70;;;10.10;99.90;;;;;;5054509;28;20470;-70
2023/01/13 09:30:31;;;;;;;1.87;1.00;;;10.10;99.90;;;;;;5054120;28;20482;-70
2023/01/13 09:35:44;;;;;;;3.63;1.10;;;10.20;99.90;;;;;;5054327;28;20433;-70
2023/01/13 09:38:11;;;;;;;2.10;0.83;;;10.20;99.90;;;;;;5054500;28;20455;-70
2023/01/13 09:40:42;;;;;;;2.13;1.10;;;10.20;99.90;;;;;;5054904;28;20930;-71
2023/01/13 09:46:42;;;;;;;1.50;0.80;;;10.20;99.90;;;;;;5066072;28;20583;-71
2023/01/13 09:48:57;;;;;;;2.90;1.00;;;10.20;99.90;;;;;;5077861;28;20464;-70
2023/01/13 09:51:30;;;;;;;14.27;1.37;;;10.10;99.90;;;;;;5079082;28;20501;-69
2023/01/13 09:54:02;;;;;;;4.10;1.00;;;10.10;99.90;;;;;;5078710;28;20867;-69
2023/01/13 09:56:29;;;;;;;3.93;1.03;;;10.00;99.90;;;;;;5078396;28;20438;-69
2023/01/13 09:58:56;;;;;;;1.80;0.80;;;10.00;99.90;;;;;;5077781;28;20543;-70
2023/01/13 10:01:29;;;;;;;1.30;0.87;;;10.00;99.90;;;;;;5078220;28;20457;-71
2023/01/13 10:04:02;;;;;;;3.00;1.20;;;10.00;99.90;;;;;;5077976;28;20891;-70
2023/01/13 10:06:34;;;;;;;2.07;0.87;;;9.90;99.90;;;;;;5078128;28;20443;-70
2023/01/13 10:09:02;;;;;;;2.07;0.80;;;9.90;99.90;;;;;;5078913;28;20534;-70
2023/01/13 10:14:21;;;;;;;2.73;0.90;;;9.90;99.90;;;;;;5078101;28;20803;-70
2023/01/13 10:16:56;;;;;;;2.07;1.00;;;9.90;99.90;;;;;;5078166;28;20533;-70
2023/01/13 10:19:29;;;;;;;3.60;1.20;;;9.90;99.90;;;;;;5078181;28;20444;-70
2023/01/13 10:22:28;;;;;;;2.40;1.10;;;9.80;99.90;;;;;;5077970;28;20906;-70
2023/01/13 10:25:19;;;;;;;1.97;0.90;;;9.90;99.90;;;;;;5077792;28;20480;-69
2023/01/13 10:27:48;;;;;;;1.70;0.90;;;9.90;99.90;;;;;;5070461;28;20544;-70
2023/01/13 10:30:30;;;;;;;2.30;1.13;;;9.90;99.90;;;;;;5077684;28;20506;-71
2023/01/13 10:32:58;;;;;;;2.17;0.80;;;10.00;99.90;;;;;;5077872;28;20878;-70
2023/01/13 10:36:04;;;;;;;1.37;0.80;;;10.00;99.90;;;;;;5077658;28;20458;-70
2023/01/13 10:38:37;;;;;;;1.30;0.80;;;10.00;99.90;;;;;;5072692;28;20458;-70
2023/01/13 10:41:06;;;;;;;2.33;0.80;;;9.90;99.90;;;;;;5077764;28;20855;-70
2023/01/13 10:43:33;;;;;;;1.20;0.80;;;9.90;99.90;;;;;;5077519;28;20572;-71
2023/01/13 10:46:03;;;;;;;1.77;0.80;;;9.90;99.90;;;;;;5077414;28;20455;-70
2023/01/13 10:48:37;;;;;;;3.00;1.03;;;9.90;99.90;;;;;;5077667;28;20464;-70
2023/01/13 10:51:23;;;;;;;2.37;1.07;;;9.90;99.90;;;;;;5077677;28;20565;-70
2023/01/13 10:53:54;;;;;;;1.90;1.10;;;9.90;99.90;;;;;;5076775;28;20452;-70
2023/01/13 10:56:22;;;;;;;1.30;0.70;;;9.90;99.90;;;;;;5077128;28;20548;-71
2023/01/13 10:58:49;;;;;;;1.83;0.90;;;10.00;99.90;;;;;;5077141;28;20458;-71
2023/01/13 11:01:29;;;;;;;2.70;1.07;;;9.90;99.90;;;;;;5077348;28;20446;-70
2023/01/13 11:03:56;;;;;;;2.20;0.80;;;9.90;99.90;;;;;;5077220;28;20848;-70
2023/01/13 11:06:26;;;;;;;1.90;0.87;;;9.90;99.90;;;;;;5077156;28;20867;-71
2023/01/13 11:08:57;;;;;;;2.67;0.90;;;9.90;99.90;;;;;;5076794;28;20549;-71
2023/01/13 11:11:37;;;;;;;1.30;0.80;;;10.00;99.90;;;;;;5077484;28;20515;-70
2023/01/13 11:16:57;;;;;;;1.13;0.63;;;10.10;99.90;;;;;;5076693;28;20915;-70
2023/01/13 11:19:28;;;;;;;2.73;0.87;;;10.10;99.90;;;;;;5076667;28;20442;-71
2023/01/13 11:22:01;;;;;;;1.57;0.70;;;10.20;99.90;;;;;;5076574;28;20891;-70
2023/01/13 11:24:36;;;;;;;1.53;0.80;;;10.30;99.90;;;;;;5076557;28;20485;-70
2023/01/13 11:27:11;;;;;;;1.53;0.87;;;10.30;99.90;;;;;;5076291;28;20472;-71
2023/01/13 11:29:43;;;;;;;2.90;0.80;;;10.20;99.90;;;;;;5075968;28;20477;-70
2023/01/13 11:32:14;;;;;;;1.73;0.80;;;10.20;99.90;;;;;;5076589;28;20478;-71
2023/01/13 11:34:43;;;;;;;1.47;0.83;;;10.20;99.90;;;;;;5076104;28;20448;-70
2023/01/13 11:37:18;;;;;;;4.23;1.17;;;10.20;99.90;;;;;;5076077;28;20853;-70
2023/01/13 11:39:54;;;;;;;1.40;0.90;;;10.30;99.90;;;;;;5075957;28;20525;-70
2023/01/13 11:42:25;;;;;;;3.00;1.10;;;10.30;99.90;;;;;;5076252;28;20751;-69
2023/01/13 11:45:03;;;;;;;2.87;0.90;;;10.30;99.90;;;;;;5076252;28;20522;-71
2023/01/13 11:47:31;;;;;;;1.67;0.90;;;10.40;99.90;;;;;;5076375;28;20442;-71
2023/01/13 11:49:58;;;;;;;4.53;0.87;;;10.30;99.90;;;;;;5076110;28;20492;-71
2023/01/13 11:52:33;;;;;;;1.27;0.80;;;10.40;99.90;;;;;;5076482;28;20565;-70
2023/01/13 11:55:24;;;;;;;5.40;1.03;;;10.40;99.90;;;;;;5077192;28;20541;-71
2023/01/13 11:58:04;;;;;;;2.43;0.70;;;10.60;99.90;;;;;;5076171;28;20462;-69
2023/01/13 12:00:36;;;;;;;3.10;0.90;;;10.60;99.90;;;;;;5075833;28;20719;-69
2023/01/13 12:03:20;;;;;;;3.07;1.10;;;10.60;99.90;;;;;;5075689;28;20506;-70
2023/01/13 12:06:02;;;;;;;6.20;1.03;;;10.70;99.90;;;;;;5074529;28;20521;-69
2023/01/13 12:08:46;;;;;;;3.10;1.10;;;10.70;99.90;;;;;;5075468;28;20529;-69
2023/01/13 12:11:20;;;;;;;2.43;1.00;;;10.70;99.90;;;;;;5075071;28;20466;-70
2023/01/13 12:14:05;;;;;;;2.33;1.10;;;10.80;99.90;;;;;;5074768;28;20528;-70
2023/01/13 12:16:32;;;;;;;4.10;1.17;;;11.20;99.90;;;;;;5075271;28;20453;-71
2023/01/13 12:19:26;;;;;;;2.30;1.23;;;12.00;99.90;;;;;;5075117;28;20454;-71
2023/01/13 12:22:02;;;;;;;5.97;1.23;;;12.70;99.90;;;;;;5061240;28;20458;-69
2023/01/13 12:24:35;;;;;;;3.67;1.20;;;13.30;99.90;;;;;;5075193;28;20434;-70
2023/01/13 12:27:11;;;;;;;4.43;1.00;;;13.50;99.90;;;;;;5074894;28;20439;-69
2023/01/13 12:29:38;;;;;;;2.00;1.10;;;13.90;99.90;;;;;;5074865;28;20438;-69
2023/01/13 12:32:11;;;;;;;3.07;1.30;;;14.60;99.90;;;;;;5074975;28;20861;-70
2023/01/13 12:34:53;;;;;;;2.50;1.20;;;15.00;99.90;;;;;;5074833;28;20545;-70
2023/01/13 12:37:26;;;;;;;1.10;0.70;;;15.50;99.90;;;;;;5075021;28;20438;-69
2023/01/13 12:40:18;;;;;;;4.00;1.20;;;15.70;99.90;;;;;;5074895;28;20438;-71
2023/01/13 12:45:39;;;;;;;3.10;1.10;;;15.80;99.90;;;;;;5074533;28;20438;-69
2023/01/13 12:48:06;;;;;;;2.23;1.10;;;15.20;99.90;;;;;;5074504;28;20481;-70
2023/01/13 12:50:40;;;;;;;2.83;1.00;;;15.10;99.90;;;;;;5075252;28;20492;-70
2023/01/13 12:53:30;;;;;;;3.13;1.00;;;15.10;99.90;;;;;;5074956;28;20469;-69
2023/01/13 12:56:34;;;;;;;3.67;0.90;;;15.10;99.90;;;;;;5074575;28;20830;-70
2023/01/13 12:59:47;;;;;;;3.83;1.10;;;15.10;99.90;;;;;;5074355;28;20541;-69
2023/01/13 13:02:31;;;;;;;4.27;1.60;;;15.60;99.90;;;;;;5070827;28;20461;-69
2023/01/13 13:05:01;;;;;;;4.13;1.23;;;15.00;99.10;;;;;;5054089;28;20943;-69
2023/01/13 13:07:42;;;;;;;2.37;1.20;;;14.00;99.90;;;;;;5054841;28;20439;-70
2023/01/13 13:10:19;;;;;;;5.80;1.37;;;13.90;99.90;;;;;;5053978;28;20467;-70
2023/01/13 13:13:18;;;;;;;2.33;1.00;;;13.70;99.90;;;;;;5065873;28;20454;-70
2023/01/13 13:15:46;;;;;;;4.13;1.37;;;13.10;99.90;;;;;;5074000;28;20439;-70
2023/01/13 13:18:27;;;;;;;2.93;0.90;;;12.60;99.90;;;;;;5074338;28;20454;-69
2023/01/13 13:21:04;;;;;;;3.70;1.33;;;12.70;99.90;;;;;;5074046;28;20442;-70
2023/01/13 13:23:47;;;;;;;2.10;1.10;;;13.10;99.90;;;;;;5055965;28;20881;-70
2023/01/13 13:26:44;;;;;;;2.60;1.23;;;12.90;99.90;;;;;;5054008;28;20450;-69
2023/01/13 13:29:42;;;;;;;2.67;1.10;;;12.50;99.90;;;;;;5054102;28;20439;-70
2023/01/13 13:32:23;;;;;;;5.67;1.13;;;12.00;99.90;;;;;;5054644;28;20436;-70
2023/01/13 13:35:02;;;;;;;3.13;1.00;;;11.80;99.90;;;;;;5055031;28;20435;-70
2023/01/13 13:48:39;;;;;;;5.23;1.57;;;13.00;99.90;;;;;;5054122;28;20480;-69
2023/01/13 13:51:25;;;;;;;3.10;0.97;;;12.70;99.90;;;;;;5054442;28;20581;-69
2023/01/13 13:53:53;;;;;;;5.83;1.17;;;12.40;99.90;;;;;;5053741;28;20931;-70
2023/01/13 13:56:24;;;;;;;5.07;1.20;;;12.10;99.90;;;;;;5054061;28;20520;-70
2023/01/13 13:58:52;;;;;;;3.30;1.00;;;12.00;99.90;;;;;;5053551;28;20454;-69
2023/01/13 14:01:24;;;;;;;3.90;1.30;;;12.10;99.90;;;;;;5053705;28;20737;-69
2023/01/13 14:04:04;;;;;;;1.80;0.80;;;12.00;99.90;;;;;;5054001;28;20518;-69
2023/01/13 14:06:32;;;;;;;7.03;1.43;;;11.70;99.90;;;;;;5053681;28;20473;-70
2023/01/13 14:08:59;;;;;;;3.30;1.10;;;11.50;99.90;;;;;;5053552;28;20762;-70
2023/01/13 14:11:28;;;;;;;4.33;2.50;;;11.30;99.90;;;;;;5053468;28;20475;-69
2023/01/13 14:14:03;;;;;;;2.40;1.07;;;11.20;99.90;;;;;;5053333;28;20916;-69
2023/01/13 14:16:31;;;;;;;4.93;1.20;;;11.10;99.90;;;;;;5053323;28;20455;-71